Terminal Aerodrome Forecast
Issued by NWS Goodland, KS

Home | Current Version | Previous Version | Text Only | Print | Product List | Glossary On
Versions: 1 2 3 4 5 6 7 8 9 10 11 12 13 14 15 16 17
000
FTUS43 KGLD 051123
TAFGLD
TAF
KGLD 051123Z 0512/0612 23010KT P6SM OVC150
     FM051600 30012KT P6SM SCT150
     FM051800 33015G20KT P6SM SCT150
     FM052000 35019G27KT P6SM SCT150
     FM060400 36013KT P6SM SCT200
     FM060800 34009KT P6SM SCT150=

USA.gov is the U.S. government's official web portal to all federal, state and local government web resources and services.